sensor_id;sensor_type;location;lat;lon;timestamp;P1;durP1;ratioP1;P2;durP2;ratioP2
14686;SDS011;7431;49.440;11.084;2023-09-19T00:01:05;2.13;;;1.50;;
14686;SDS011;7431;49.440;11.084;2023-09-19T00:03:37;3.67;;;1.80;;
14686;SDS011;7431;49.440;11.084;2023-09-19T00:06:04;2.25;;;1.50;;
14686;SDS011;7431;49.440;11.084;2023-09-19T00:08:30;3.33;;;1.55;;
14686;SDS011;7431;49.440;11.084;2023-09-19T00:10:56;2.33;;;1.67;;
14686;SDS011;7431;49.440;11.084;2023-09-19T00:13:30;2.70;;;1.58;;
14686;SDS011;7431;49.440;11.084;2023-09-19T00:15:56;2.30;;;1.52;;
14686;SDS011;7431;49.440;11.084;2023-09-19T00:18:23;1.60;;;1.40;;
14686;SDS011;7431;49.440;11.084;2023-09-19T00:20:56;1.58;;;1.48;;
14686;SDS011;7431;49.440;11.084;2023-09-19T00:23:22;1.80;;;1.42;;
14686;SDS011;7431;49.440;11.084;2023-09-19T00:25:49;2.85;;;1.60;;
14686;SDS011;7431;49.440;11.084;2023-09-19T00:28:16;3.42;;;1.58;;
14686;SDS011;7431;49.440;11.084;2023-09-19T00:30:43;2.47;;;1.60;;
14686;SDS011;7431;49.440;11.084;2023-09-19T00:33:09;2.08;;;1.73;;
14686;SDS011;7431;49.440;11.084;2023-09-19T00:35:36;1.98;;;1.50;;
14686;SDS011;7431;49.440;11.084;2023-09-19T00:38:02;1.80;;;1.70;;
14686;SDS011;7431;49.440;11.084;2023-09-19T00:40:28;3.63;;;2.00;;
14686;SDS011;7431;49.440;11.084;2023-09-19T00:42:57;2.35;;;1.60;;
14686;SDS011;7431;49.440;11.084;2023-09-19T00:45:26;2.17;;;1.67;;
14686;SDS011;7431;49.440;11.084;2023-09-19T00:47:53;2.03;;;1.73;;
14686;SDS011;7431;49.440;11.084;2023-09-19T00:50:20;1.80;;;1.65;;
14686;SDS011;7431;49.440;11.084;2023-09-19T00:52:47;2.33;;;1.92;;
14686;SDS011;7431;49.440;11.084;2023-09-19T00:55:14;3.53;;;1.80;;
14686;SDS011;7431;49.440;11.084;2023-09-19T00:57:41;3.10;;;1.70;;
14686;SDS011;7431;49.440;11.084;2023-09-19T01:00:09;1.83;;;1.45;;
14686;SDS011;7431;49.440;11.084;2023-09-19T01:02:37;1.60;;;1.50;;
14686;SDS011;7431;49.440;11.084;2023-09-19T01:05:03;2.03;;;1.58;;
14686;SDS011;7431;49.440;11.084;2023-09-19T01:07:30;1.88;;;1.45;;
14686;SDS011;7431;49.440;11.084;2023-09-19T01:09:56;1.70;;;1.20;;
14686;SDS011;7431;49.440;11.084;2023-09-19T01:12:30;2.17;;;1.83;;
14686;SDS011;7431;49.440;11.084;2023-09-19T01:14:59;3.92;;;1.85;;
14686;SDS011;7431;49.440;11.084;2023-09-19T01:17:30;2.20;;;1.70;;
14686;SDS011;7431;49.440;11.084;2023-09-19T01:22:53;1.65;;;1.45;;
14686;SDS011;7431;49.440;11.084;2023-09-19T01:28:23;2.10;;;1.70;;
14686;SDS011;7431;49.440;11.084;2023-09-19T01:30:58;1.83;;;1.30;;
14686;SDS011;7431;49.440;11.084;2023-09-19T01:33:25;1.55;;;1.42;;
14686;SDS011;7431;49.440;11.084;2023-09-19T01:35:51;1.90;;;1.27;;
14686;SDS011;7431;49.440;11.084;2023-09-19T01:38:22;2.15;;;1.50;;
14686;SDS011;7431;49.440;11.084;2023-09-19T01:41:07;1.23;;;1.13;;
14686;SDS011;7431;49.440;11.084;2023-09-19T01:43:36;1.50;;;1.40;;
14686;SDS011;7431;49.440;11.084;2023-09-19T01:46:24;1.13;;;1.02;;
14686;SDS011;7431;49.440;11.084;2023-09-19T01:48:57;1.20;;;1.10;;
14686;SDS011;7431;49.440;11.084;2023-09-19T01:51:37;1.40;;;1.20;;
14686;SDS011;7431;49.440;11.084;2023-09-19T01:54:05;3.97;;;1.70;;
14686;SDS011;7431;49.440;11.084;2023-09-19T01:59:02;1.23;;;1.13;;
14686;SDS011;7431;49.440;11.084;2023-09-19T02:01:30;1.40;;;1.20;;
14686;SDS011;7431;49.440;11.084;2023-09-19T02:03:56;2.35;;;1.40;;
14686;SDS011;7431;49.440;11.084;2023-09-19T02:06:23;1.60;;;1.10;;
14686;SDS011;7431;49.440;11.084;2023-09-19T02:08:51;1.55;;;1.10;;
14686;SDS011;7431;49.440;11.084;2023-09-19T02:11:17;1.05;;;1.00;;
14686;SDS011;7431;49.440;11.084;2023-09-19T02:13:43;2.00;;;1.27;;
14686;SDS011;7431;49.440;11.084;2023-09-19T02:16:09;3.03;;;1.48;;
14686;SDS011;7431;49.440;11.084;2023-09-19T02:18:36;1.70;;;1.10;;
14686;SDS011;7431;49.440;11.084;2023-09-19T02:21:02;1.42;;;1.33;;
14686;SDS011;7431;49.440;11.084;2023-09-19T02:23:29;1.50;;;1.40;;
14686;SDS011;7431;49.440;11.084;2023-09-19T02:25:55;2.45;;;1.50;;
14686;SDS011;7431;49.440;11.084;2023-09-19T02:28:23;1.20;;;0.98;;
14686;SDS011;7431;49.440;11.084;2023-09-19T02:30:49;1.48;;;1.38;;
14686;SDS011;7431;49.440;11.084;2023-09-19T02:33:15;3.97;;;1.25;;
14686;SDS011;7431;49.440;11.084;2023-09-19T02:35:44;1.48;;;1.38;;
14686;SDS011;7431;49.440;11.084;2023-09-19T02:38:11;1.33;;;1.23;;
14686;SDS011;7431;49.440;11.084;2023-09-19T02:40:37;3.10;;;1.42;;
14686;SDS011;7431;49.440;11.084;2023-09-19T02:43:03;1.95;;;1.20;;
14686;SDS011;7431;49.440;11.084;2023-09-19T02:45:30;1.17;;;1.02;;
14686;SDS011;7431;49.440;11.084;2023-09-19T02:47:57;1.92;;;1.42;;
14686;SDS011;7431;49.440;11.084;2023-09-19T02:50:23;2.22;;;1.60;;
14686;SDS011;7431;49.440;11.084;2023-09-19T02:52:49;3.05;;;1.33;;
14686;SDS011;7431;49.440;11.084;2023-09-19T02:55:16;1.92;;;1.23;;
14686;SDS011;7431;49.440;11.084;2023-09-19T02:57:47;1.00;;;1.00;;
14686;SDS011;7431;49.440;11.084;2023-09-19T03:00:13;3.05;;;1.92;;
14686;SDS011;7431;49.440;11.084;2023-09-19T03:02:40;2.00;;;1.50;;
14686;SDS011;7431;49.440;11.084;2023-09-19T03:05:06;2.25;;;1.35;;
14686;SDS011;7431;49.440;11.084;2023-09-19T03:07:32;2.25;;;1.40;;
14686;SDS011;7431;49.440;11.084;2023-09-19T03:09:58;1.85;;;1.35;;
14686;SDS011;7431;49.440;11.084;2023-09-19T03:12:25;1.60;;;1.40;;
14686;SDS011;7431;49.440;11.084;2023-09-19T03:14:51;1.35;;;1.25;;
14686;SDS011;7431;49.440;11.084;2023-09-19T03:17:17;1.90;;;1.30;;
14686;SDS011;7431;49.440;11.084;2023-09-19T03:19:45;4.75;;;1.73;;
14686;SDS011;7431;49.440;11.084;2023-09-19T03:22:12;1.58;;;1.48;;
14686;SDS011;7431;49.440;11.084;2023-09-19T03:24:38;1.30;;;1.20;;
14686;SDS011;7431;49.440;11.084;2023-09-19T03:27:04;2.00;;;1.20;;
14686;SDS011;7431;49.440;11.084;2023-09-19T03:29:30;1.58;;;1.30;;
14686;SDS011;7431;49.440;11.084;2023-09-19T03:31:56;2.05;;;0.98;;
14686;SDS011;7431;49.440;11.084;2023-09-19T03:34:22;1.30;;;1.20;;
14686;SDS011;7431;49.440;11.084;2023-09-19T03:36:48;1.10;;;1.00;;
14686;SDS011;7431;49.440;11.084;2023-09-19T03:39:14;2.00;;;1.48;;
14686;SDS011;7431;49.440;11.084;2023-09-19T03:41:41;1.98;;;1.33;;
14686;SDS011;7431;49.440;11.084;2023-09-19T03:44:07;2.17;;;1.30;;
14686;SDS011;7431;49.440;11.084;2023-09-19T03:46:33;1.35;;;1.25;;
14686;SDS011;7431;49.440;11.084;2023-09-19T03:49:00;1.95;;;1.20;;
14686;SDS011;7431;49.440;11.084;2023-09-19T03:51:26;1.25;;;1.15;;
14686;SDS011;7431;49.440;11.084;2023-09-19T03:53:52;1.10;;;1.10;;
14686;SDS011;7431;49.440;11.084;2023-09-19T03:56:18;3.65;;;1.50;;
14686;SDS011;7431;49.440;11.084;2023-09-19T03:58:44;1.98;;;1.60;;
14686;SDS011;7431;49.440;11.084;2023-09-19T04:01:10;1.88;;;1.35;;
14686;SDS011;7431;49.440;11.084;2023-09-19T04:03:38;3.65;;;1.48;;
14686;SDS011;7431;49.440;11.084;2023-09-19T04:06:15;1.75;;;1.40;;
14686;SDS011;7431;49.440;11.084;2023-09-19T04:08:42;2.15;;;1.83;;
14686;SDS011;7431;49.440;11.084;2023-09-19T04:11:09;3.58;;;2.20;;
14686;SDS011;7431;49.440;11.084;2023-09-19T04:13:35;1.90;;;1.70;;
14686;SDS011;7431;49.440;11.084;2023-09-19T04:16:01;1.85;;;1.42;;
14686;SDS011;7431;49.440;11.084;2023-09-19T04:18:29;2.03;;;1.60;;
14686;SDS011;7431;49.440;11.084;2023-09-19T04:20:58;3.50;;;2.05;;
14686;SDS011;7431;49.440;11.084;2023-09-19T04:23:24;2.53;;;2.05;;
14686;SDS011;7431;49.440;11.084;2023-09-19T04:25:50;2.38;;;1.80;;
14686;SDS011;7431;49.440;11.084;2023-09-19T04:28:16;3.95;;;3.40;;
14686;SDS011;7431;49.440;11.084;2023-09-19T04:30:42;5.00;;;3.10;;
14686;SDS011;7431;49.440;11.084;2023-09-19T04:33:09;4.47;;;2.40;;
14686;SDS011;7431;49.440;11.084;2023-09-19T04:35:35;2.55;;;2.35;;
14686;SDS011;7431;49.440;11.084;2023-09-19T04:38:01;3.63;;;2.50;;
14686;SDS011;7431;49.440;11.084;2023-09-19T04:40:28;3.72;;;2.50;;
14686;SDS011;7431;49.440;11.084;2023-09-19T04:42:54;4.20;;;2.45;;
14686;SDS011;7431;49.440;11.084;2023-09-19T04:45:25;4.15;;;3.05;;
14686;SDS011;7431;49.440;11.084;2023-09-19T04:47:52;4.47;;;2.88;;
14686;SDS011;7431;49.440;11.084;2023-09-19T04:50:18;3.05;;;2.75;;
14686;SDS011;7431;49.440;11.084;2023-09-19T04:52:46;3.03;;;2.50;;
14686;SDS011;7431;49.440;11.084;2023-09-19T04:55:15;3.53;;;2.22;;
14686;SDS011;7431;49.440;11.084;2023-09-19T04:57:45;2.22;;;1.98;;
14686;SDS011;7431;49.440;11.084;2023-09-19T05:00:12;1.88;;;1.73;;
14686;SDS011;7431;49.440;11.084;2023-09-19T05:02:39;3.10;;;1.88;;
14686;SDS011;7431;49.440;11.084;2023-09-19T05:05:06;2.25;;;2.05;;
14686;SDS011;7431;49.440;11.084;2023-09-19T05:07:33;2.17;;;1.95;;
14686;SDS011;7431;49.440;11.084;2023-09-19T05:09:59;2.17;;;1.90;;
14686;SDS011;7431;49.440;11.084;2023-09-19T05:12:28;3.80;;;2.72;;
14686;SDS011;7431;49.440;11.084;2023-09-19T05:14:54;2.22;;;1.95;;
14686;SDS011;7431;49.440;11.084;2023-09-19T05:17:20;2.42;;;1.70;;
14686;SDS011;7431;49.440;11.084;2023-09-19T05:19:46;1.88;;;1.45;;
14686;SDS011;7431;49.440;11.084;2023-09-19T05:22:13;2.55;;;2.10;;
14686;SDS011;7431;49.440;11.084;2023-09-19T05:24:39;2.00;;;1.80;;
14686;SDS011;7431;49.440;11.084;2023-09-19T05:27:05;2.20;;;1.65;;
14686;SDS011;7431;49.440;11.084;2023-09-19T05:29:32;4.57;;;3.03;;
14686;SDS011;7431;49.440;11.084;2023-09-19T05:31:58;3.50;;;1.75;;
14686;SDS011;7431;49.440;11.084;2023-09-19T05:34:24;4.00;;;2.22;;
14686;SDS011;7431;49.440;11.084;2023-09-19T05:36:54;1.90;;;1.60;;
14686;SDS011;7431;49.440;11.084;2023-09-19T05:39:20;3.42;;;1.90;;
14686;SDS011;7431;49.440;11.084;2023-09-19T05:41:47;2.72;;;1.77;;
14686;SDS011;7431;49.440;11.084;2023-09-19T05:44:13;3.03;;;1.67;;
14686;SDS011;7431;49.440;11.084;2023-09-19T05:46:39;1.73;;;1.63;;
14686;SDS011;7431;49.440;11.084;2023-09-19T05:49:05;1.92;;;1.48;;
14686;SDS011;7431;49.440;11.084;2023-09-19T05:51:31;3.00;;;1.52;;
14686;SDS011;7431;49.440;11.084;2023-09-19T05:53:57;1.73;;;1.52;;
14686;SDS011;7431;49.440;11.084;2023-09-19T05:56:24;2.50;;;1.77;;
14686;SDS011;7431;49.440;11.084;2023-09-19T05:58:50;3.47;;;1.50;;
14686;SDS011;7431;49.440;11.084;2023-09-19T06:01:18;2.28;;;1.63;;
14686;SDS011;7431;49.440;11.084;2023-09-19T06:03:44;1.60;;;1.42;;
14686;SDS011;7431;49.440;11.084;2023-09-19T06:06:10;1.75;;;1.17;;
14686;SDS011;7431;49.440;11.084;2023-09-19T06:08:36;1.88;;;1.50;;
14686;SDS011;7431;49.440;11.084;2023-09-19T06:11:02;1.75;;;1.65;;
14686;SDS011;7431;49.440;11.084;2023-09-19T06:13:30;2.25;;;1.80;;
14686;SDS011;7431;49.440;11.084;2023-09-19T06:15:58;2.58;;;1.60;;
14686;SDS011;7431;49.440;11.084;2023-09-19T06:18:29;2.20;;;1.80;;
14686;SDS011;7431;49.440;11.084;2023-09-19T06:20:58;2.75;;;1.70;;
14686;SDS011;7431;49.440;11.084;2023-09-19T06:23:24;1.92;;;1.30;;
14686;SDS011;7431;49.440;11.084;2023-09-19T06:25:51;1.73;;;1.58;;
14686;SDS011;7431;49.440;11.084;2023-09-19T06:28:18;2.45;;;1.75;;
14686;SDS011;7431;49.440;11.084;2023-09-19T06:30:49;2.17;;;1.60;;
14686;SDS011;7431;49.440;11.084;2023-09-19T06:33:15;2.40;;;1.95;;
14686;SDS011;7431;49.440;11.084;2023-09-19T06:35:42;1.90;;;1.52;;
14686;SDS011;7431;49.440;11.084;2023-09-19T06:38:09;1.60;;;1.08;;
14686;SDS011;7431;49.440;11.084;2023-09-19T06:40:38;2.75;;;1.65;;
14686;SDS011;7431;49.440;11.084;2023-09-19T06:43:07;4.55;;;1.60;;
14686;SDS011;7431;49.440;11.084;2023-09-19T06:45:35;1.92;;;1.63;;
14686;SDS011;7431;49.440;11.084;2023-09-19T06:48:01;2.17;;;1.50;;
14686;SDS011;7431;49.440;11.084;2023-09-19T06:50:28;2.08;;;1.10;;
14686;SDS011;7431;49.440;11.084;2023-09-19T06:52:56;0.80;;;0.80;;
14686;SDS011;7431;49.440;11.084;2023-09-19T06:55:24;1.23;;;1.13;;
14686;SDS011;7431;49.440;11.084;2023-09-19T06:57:53;1.75;;;1.08;;
14686;SDS011;7431;49.440;11.084;2023-09-19T07:00:19;1.50;;;1.10;;
14686;SDS011;7431;49.440;11.084;2023-09-19T07:05:23;1.75;;;0.90;;
14686;SDS011;7431;49.440;11.084;2023-09-19T07:07:49;3.67;;;1.10;;
14686;SDS011;7431;49.440;11.084;2023-09-19T07:10:15;2.05;;;1.20;;
14686;SDS011;7431;49.440;11.084;2023-09-19T07:12:43;1.55;;;1.20;;
14686;SDS011;7431;49.440;11.084;2023-09-19T07:15:09;1.85;;;1.02;;
14686;SDS011;7431;49.440;11.084;2023-09-19T07:17:35;1.63;;;1.00;;
14686;SDS011;7431;49.440;11.084;2023-09-19T07:20:01;1.73;;;1.00;;
14686;SDS011;7431;49.440;11.084;2023-09-19T07:22:33;2.25;;;1.00;;
14686;SDS011;7431;49.440;11.084;2023-09-19T07:25:00;2.40;;;1.08;;
14686;SDS011;7431;49.440;11.084;2023-09-19T07:27:26;1.42;;;1.05;;
14686;SDS011;7431;49.440;11.084;2023-09-19T07:29:52;2.00;;;1.20;;
14686;SDS011;7431;49.440;11.084;2023-09-19T07:32:18;1.50;;;1.30;;
14686;SDS011;7431;49.440;11.084;2023-09-19T07:34:43;1.35;;;1.17;;
14686;SDS011;7431;49.440;11.084;2023-09-19T07:37:10;0.90;;;0.90;;
14686;SDS011;7431;49.440;11.084;2023-09-19T07:39:38;1.88;;;1.00;;
14686;SDS011;7431;49.440;11.084;2023-09-19T07:42:06;3.25;;;1.50;;
14686;SDS011;7431;49.440;11.084;2023-09-19T07:44:32;1.38;;;1.10;;
14686;SDS011;7431;49.440;11.084;2023-09-19T07:46:58;2.13;;;1.38;;
14686;SDS011;7431;49.440;11.084;2023-09-19T07:49:24;1.35;;;1.25;;
14686;SDS011;7431;49.440;11.084;2023-09-19T07:51:50;1.73;;;1.10;;
14686;SDS011;7431;49.440;11.084;2023-09-19T07:54:17;1.55;;;1.45;;
14686;SDS011;7431;49.440;11.084;2023-09-19T07:56:43;2.13;;;1.30;;
14686;SDS011;7431;49.440;11.084;2023-09-19T07:59:10;2.08;;;1.00;;
14686;SDS011;7431;49.440;11.084;2023-09-19T08:01:37;3.08;;;1.38;;
14686;SDS011;7431;49.440;11.084;2023-09-19T08:04:04;1.92;;;1.40;;
14686;SDS011;7431;49.440;11.084;2023-09-19T08:06:30;1.88;;;1.40;;
14686;SDS011;7431;49.440;11.084;2023-09-19T08:08:56;1.50;;;1.40;;
14686;SDS011;7431;49.440;11.084;2023-09-19T08:11:23;2.83;;;1.38;;
14686;SDS011;7431;49.440;11.084;2023-09-19T08:13:49;1.80;;;1.27;;
14686;SDS011;7431;49.440;11.084;2023-09-19T08:16:16;2.25;;;1.27;;
14686;SDS011;7431;49.440;11.084;2023-09-19T08:18:43;1.65;;;1.00;;
14686;SDS011;7431;49.440;11.084;2023-09-19T08:21:12;3.63;;;1.15;;
14686;SDS011;7431;49.440;11.084;2023-09-19T08:23:39;1.65;;;1.30;;
14686;SDS011;7431;49.440;11.084;2023-09-19T08:26:05;4.53;;;1.45;;
14686;SDS011;7431;49.440;11.084;2023-09-19T08:28:33;1.60;;;1.50;;
14686;SDS011;7431;49.440;11.084;2023-09-19T08:31:03;1.15;;;1.05;;
14686;SDS011;7431;49.440;11.084;2023-09-19T08:33:35;1.83;;;1.00;;
14686;SDS011;7431;49.440;11.084;2023-09-19T08:36:02;1.45;;;1.30;;
14686;SDS011;7431;49.440;11.084;2023-09-19T08:38:30;4.93;;;1.55;;
14686;SDS011;7431;49.440;11.084;2023-09-19T08:40:58;1.35;;;1.10;;
14686;SDS011;7431;49.440;11.084;2023-09-19T08:43:27;1.20;;;1.10;;
14686;SDS011;7431;49.440;11.084;2023-09-19T08:45:56;1.13;;;0.93;;
14686;SDS011;7431;49.440;11.084;2023-09-19T08:48:26;1.40;;;1.10;;
14686;SDS011;7431;49.440;11.084;2023-09-19T08:50:56;2.17;;;1.30;;
14686;SDS011;7431;49.440;11.084;2023-09-19T08:53:42;1.35;;;1.20;;
14686;SDS011;7431;49.440;11.084;2023-09-19T08:56:11;1.73;;;1.23;;
14686;SDS011;7431;49.440;11.084;2023-09-19T08:58:50;1.90;;;1.17;;
14686;SDS011;7431;49.440;11.084;2023-09-19T09:01:18;2.00;;;1.40;;
14686;SDS011;7431;49.440;11.084;2023-09-19T09:03:49;1.30;;;1.20;;
14686;SDS011;7431;49.440;11.084;2023-09-19T09:06:17;1.30;;;1.20;;
14686;SDS011;7431;49.440;11.084;2023-09-19T09:08:43;1.75;;;1.13;;
14686;SDS011;7431;49.440;11.084;2023-09-19T09:11:10;2.38;;;1.35;;
14686;SDS011;7431;49.440;11.084;2023-09-19T09:13:36;1.85;;;1.10;;
14686;SDS011;7431;49.440;11.084;2023-09-19T09:16:02;1.50;;;1.15;;
14686;SDS011;7431;49.440;11.084;2023-09-19T09:18:28;1.60;;;1.33;;
14686;SDS011;7431;49.440;11.084;2023-09-19T09:20:55;1.38;;;1.23;;
14686;SDS011;7431;49.440;11.084;2023-09-19T09:23:21;1.33;;;1.20;;
14686;SDS011;7431;49.440;11.084;2023-09-19T09:25:48;2.13;;;1.42;;
14686;SDS011;7431;49.440;11.084;2023-09-19T09:28:22;1.85;;;1.30;;
14686;SDS011;7431;49.440;11.084;2023-09-19T09:30:48;3.65;;;1.30;;
14686;SDS011;7431;49.440;11.084;2023-09-19T09:33:15;2.30;;;1.52;;
14686;SDS011;7431;49.440;11.084;2023-09-19T09:38:17;2.45;;;1.20;;
14686;SDS011;7431;49.440;11.084;2023-09-19T09:40:50;1.23;;;1.13;;
14686;SDS011;7431;49.440;11.084;2023-09-19T09:43:33;2.05;;;1.20;;
14686;SDS011;7431;49.440;11.084;2023-09-19T09:46:10;1.17;;;1.10;;
14686;SDS011;7431;49.440;11.084;2023-09-19T09:48:45;1.35;;;1.00;;
14686;SDS011;7431;49.440;11.084;2023-09-19T09:51:31;1.70;;;1.40;;
14686;SDS011;7431;49.440;11.084;2023-09-19T09:54:11;2.13;;;1.33;;
14686;SDS011;7431;49.440;11.084;2023-09-19T09:56:59;2.63;;;1.83;;
14686;SDS011;7431;49.440;11.084;2023-09-19T10:02:13;2.85;;;1.45;;
14686;SDS011;7431;49.440;11.084;2023-09-19T10:04:42;2.28;;;1.00;;
14686;SDS011;7431;49.440;11.084;2023-09-19T10:07:30;1.17;;;1.08;;
14686;SDS011;7431;49.440;11.084;2023-09-19T10:10:32;2.67;;;1.73;;
14686;SDS011;7431;49.440;11.084;2023-09-19T10:13:08;3.85;;;1.40;;
14686;SDS011;7431;49.440;11.084;2023-09-19T10:15:39;1.40;;;1.30;;
14686;SDS011;7431;49.440;11.084;2023-09-19T10:18:15;2.25;;;1.27;;
14686;SDS011;7431;49.440;11.084;2023-09-19T10:20:43;1.98;;;1.02;;
14686;SDS011;7431;49.440;11.084;2023-09-19T10:23:10;1.20;;;1.10;;
14686;SDS011;7431;49.440;11.084;2023-09-19T10:25:40;2.45;;;1.30;;
14686;SDS011;7431;49.440;11.084;2023-09-19T10:28:07;2.20;;;1.35;;
14686;SDS011;7431;49.440;11.084;2023-09-19T10:30:45;2.15;;;1.90;;
14686;SDS011;7431;49.440;11.084;2023-09-19T10:33:19;1.60;;;1.50;;
14686;SDS011;7431;49.440;11.084;2023-09-19T10:35:46;1.92;;;1.35;;
14686;SDS011;7431;49.440;11.084;2023-09-19T10:38:13;1.73;;;1.40;;
14686;SDS011;7431;49.440;11.084;2023-09-19T10:40:39;1.92;;;1.50;;
14686;SDS011;7431;49.440;11.084;2023-09-19T10:43:11;1.30;;;1.17;;
14686;SDS011;7431;49.440;11.084;2023-09-19T10:45:37;1.55;;;1.17;;
14686;SDS011;7431;49.440;11.084;2023-09-19T10:48:04;2.40;;;1.42;;
14686;SDS011;7431;49.440;11.084;2023-09-19T10:50:36;2.30;;;1.50;;
14686;SDS011;7431;49.440;11.084;2023-09-19T10:53:09;4.43;;;1.77;;
14686;SDS011;7431;49.440;11.084;2023-09-19T10:55:37;1.50;;;1.23;;
14686;SDS011;7431;49.440;11.084;2023-09-19T10:58:03;1.48;;;1.15;;
14686;SDS011;7431;49.440;11.084;2023-09-19T11:00:55;1.63;;;1.30;;
14686;SDS011;7431;49.440;11.084;2023-09-19T11:03:22;1.73;;;1.40;;
14686;SDS011;7431;49.440;11.084;2023-09-19T11:06:01;2.17;;;1.35;;
14686;SDS011;7431;49.440;11.084;2023-09-19T11:14:13;1.55;;;1.08;;
14686;SDS011;7431;49.440;11.084;2023-09-19T11:16:40;2.75;;;1.48;;
14686;SDS011;7431;49.440;11.084;2023-09-19T11:19:06;1.25;;;1.15;;
14686;SDS011;7431;49.440;11.084;2023-09-19T11:24:27;4.07;;;1.15;;
14686;SDS011;7431;49.440;11.084;2023-09-19T11:27:12;3.38;;;1.00;;
14686;SDS011;7431;49.440;11.084;2023-09-19T11:29:38;1.42;;;1.20;;
14686;SDS011;7431;49.440;11.084;2023-09-19T11:32:05;1.40;;;0.93;;
14686;SDS011;7431;49.440;11.084;2023-09-19T11:34:38;2.28;;;1.38;;
14686;SDS011;7431;49.440;11.084;2023-09-19T11:39:37;1.85;;;1.30;;
14686;SDS011;7431;49.440;11.084;2023-09-19T11:44:48;1.40;;;1.30;;
14686;SDS011;7431;49.440;11.084;2023-09-19T11:47:17;1.00;;;1.00;;
14686;SDS011;7431;49.440;11.084;2023-09-19T11:49:44;2.13;;;1.10;;
14686;SDS011;7431;49.440;11.084;2023-09-19T11:52:10;4.97;;;2.58;;
14686;SDS011;7431;49.440;11.084;2023-09-19T11:54:39;1.98;;;1.35;;
14686;SDS011;7431;49.440;11.084;2023-09-19T11:57:06;1.90;;;1.30;;
14686;SDS011;7431;49.440;11.084;2023-09-19T11:59:33;2.38;;;1.35;;
14686;SDS011;7431;49.440;11.084;2023-09-19T12:02:03;2.40;;;1.40;;
14686;SDS011;7431;49.440;11.084;2023-09-19T12:04:33;1.75;;;1.27;;
14686;SDS011;7431;49.440;11.084;2023-09-19T12:07:09;2.63;;;1.50;;
14686;SDS011;7431;49.440;11.084;2023-09-19T12:09:40;2.05;;;1.42;;
14686;SDS011;7431;49.440;11.084;2023-09-19T12:12:09;2.35;;;1.13;;
14686;SDS011;7431;49.440;11.084;2023-09-19T12:14:37;1.98;;;1.40;;
14686;SDS011;7431;49.440;11.084;2023-09-19T12:17:04;1.70;;;1.25;;
14686;SDS011;7431;49.440;11.084;2023-09-19T12:19:30;1.33;;;1.23;;
14686;SDS011;7431;49.440;11.084;2023-09-19T12:22:00;1.98;;;1.50;;
14686;SDS011;7431;49.440;11.084;2023-09-19T12:24:30;1.48;;;1.38;;
14686;SDS011;7431;49.440;11.084;2023-09-19T12:27:00;3.90;;;1.40;;
14686;SDS011;7431;49.440;11.084;2023-09-19T12:29:26;1.67;;;1.13;;
14686;SDS011;7431;49.440;11.084;2023-09-19T12:31:56;0.85;;;0.85;;
14686;SDS011;7431;49.440;11.084;2023-09-19T12:34:29;3.13;;;1.45;;
14686;SDS011;7431;49.440;11.084;2023-09-19T12:37:15;1.38;;;1.20;;
14686;SDS011;7431;49.440;11.084;2023-09-19T12:39:46;1.15;;;1.05;;
14686;SDS011;7431;49.440;11.084;2023-09-19T12:42:14;1.67;;;1.30;;
14686;SDS011;7431;49.440;11.084;2023-09-19T12:44:41;2.40;;;0.95;;
14686;SDS011;7431;49.440;11.084;2023-09-19T12:47:11;2.45;;;1.27;;
14686;SDS011;7431;49.440;11.084;2023-09-19T12:52:24;2.70;;;1.38;;
14686;SDS011;7431;49.440;11.084;2023-09-19T12:54:51;2.75;;;1.40;;
14686;SDS011;7431;49.440;11.084;2023-09-19T12:57:24;1.95;;;1.55;;
14686;SDS011;7431;49.440;11.084;2023-09-19T12:59:52;1.15;;;1.10;;
14686;SDS011;7431;49.440;11.084;2023-09-19T13:02:19;1.45;;;1.35;;
14686;SDS011;7431;49.440;11.084;2023-09-19T13:04:54;1.63;;;1.13;;
14686;SDS011;7431;49.440;11.084;2023-09-19T13:07:40;1.63;;;1.33;;
14686;SDS011;7431;49.440;11.084;2023-09-19T13:10:10;1.33;;;1.23;;
14686;SDS011;7431;49.440;11.084;2023-09-19T13:12:40;2.25;;;1.15;;
14686;SDS011;7431;49.440;11.084;2023-09-19T13:15:11;1.92;;;1.33;;
14686;SDS011;7431;49.440;11.084;2023-09-19T13:17:49;1.45;;;1.15;;
14686;SDS011;7431;49.440;11.084;2023-09-19T13:20:24;3.50;;;1.23;;
14686;SDS011;7431;49.440;11.084;2023-09-19T13:22:52;1.80;;;1.40;;
14686;SDS011;7431;49.440;11.084;2023-09-19T13:25:19;1.83;;;1.55;;
14686;SDS011;7431;49.440;11.084;2023-09-19T13:27:46;2.63;;;1.30;;
14686;SDS011;7431;49.440;11.084;2023-09-19T13:30:17;2.10;;;1.73;;
14686;SDS011;7431;49.440;11.084;2023-09-19T13:32:43;2.85;;;1.50;;
14686;SDS011;7431;49.440;11.084;2023-09-19T13:35:09;4.07;;;1.27;;
14686;SDS011;7431;49.440;11.084;2023-09-19T13:37:35;1.02;;;1.00;;
14686;SDS011;7431;49.440;11.084;2023-09-19T13:40:03;2.58;;;1.48;;
14686;SDS011;7431;49.440;11.084;2023-09-19T13:42:30;2.83;;;1.50;;
14686;SDS011;7431;49.440;11.084;2023-09-19T13:44:56;1.95;;;1.48;;
14686;SDS011;7431;49.440;11.084;2023-09-19T13:47:22;2.03;;;1.38;;
14686;SDS011;7431;49.440;11.084;2023-09-19T13:49:51;2.03;;;1.20;;
14686;SDS011;7431;49.440;11.084;2023-09-19T13:52:21;2.08;;;1.25;;
14686;SDS011;7431;49.440;11.084;2023-09-19T13:54:48;2.42;;;1.33;;
14686;SDS011;7431;49.440;11.084;2023-09-19T13:57:14;2.83;;;1.40;;
14686;SDS011;7431;49.440;11.084;2023-09-19T13:59:41;2.60;;;1.27;;
14686;SDS011;7431;49.440;11.084;2023-09-19T14:02:07;2.35;;;1.10;;
14686;SDS011;7431;49.440;11.084;2023-09-19T14:04:33;1.70;;;1.30;;
14686;SDS011;7431;49.440;11.084;2023-09-19T14:07:00;3.13;;;1.23;;
14686;SDS011;7431;49.440;11.084;2023-09-19T14:09:26;2.15;;;1.67;;
14686;SDS011;7431;49.440;11.084;2023-09-19T14:11:52;1.35;;;1.20;;
14686;SDS011;7431;49.440;11.084;2023-09-19T14:14:18;2.55;;;1.70;;
14686;SDS011;7431;49.440;11.084;2023-09-19T14:16:45;3.28;;;2.00;;
14686;SDS011;7431;49.440;11.084;2023-09-19T14:19:12;3.30;;;1.80;;
14686;SDS011;7431;49.440;11.084;2023-09-19T14:21:38;2.35;;;1.38;;
14686;SDS011;7431;49.440;11.084;2023-09-19T14:24:05;2.90;;;1.80;;
14686;SDS011;7431;49.440;11.084;2023-09-19T14:26:34;2.55;;;1.30;;
14686;SDS011;7431;49.440;11.084;2023-09-19T14:29:00;2.22;;;1.45;;
14686;SDS011;7431;49.440;11.084;2023-09-19T14:31:26;1.85;;;1.48;;
14686;SDS011;7431;49.440;11.084;2023-09-19T14:33:55;2.30;;;1.42;;
14686;SDS011;7431;49.440;11.084;2023-09-19T14:36:22;2.58;;;1.55;;
14686;SDS011;7431;49.440;11.084;2023-09-19T14:38:51;2.15;;;1.40;;
14686;SDS011;7431;49.440;11.084;2023-09-19T14:41:19;2.30;;;1.85;;
14686;SDS011;7431;49.440;11.084;2023-09-19T14:43:45;1.98;;;1.40;;
14686;SDS011;7431;49.440;11.084;2023-09-19T14:46:11;1.98;;;1.30;;
14686;SDS011;7431;49.440;11.084;2023-09-19T14:48:37;2.17;;;1.33;;
14686;SDS011;7431;49.440;11.084;2023-09-19T14:51:03;2.28;;;1.27;;
14686;SDS011;7431;49.440;11.084;2023-09-19T14:53:30;2.53;;;1.40;;
14686;SDS011;7431;49.440;11.084;2023-09-19T14:55:56;1.77;;;1.23;;
14686;SDS011;7431;49.440;11.084;2023-09-19T14:58:22;2.58;;;1.35;;
14686;SDS011;7431;49.440;11.084;2023-09-19T15:00:51;1.30;;;1.20;;
14686;SDS011;7431;49.440;11.084;2023-09-19T15:03:17;3.42;;;1.80;;
14686;SDS011;7431;49.440;11.084;2023-09-19T15:05:43;4.00;;;1.58;;
14686;SDS011;7431;49.440;11.084;2023-09-19T15:08:09;2.08;;;1.67;;
14686;SDS011;7431;49.440;11.084;2023-09-19T15:10:35;2.58;;;1.58;;
14686;SDS011;7431;49.440;11.084;2023-09-19T15:13:01;4.32;;;1.40;;
14686;SDS011;7431;49.440;11.084;2023-09-19T15:15:27;2.58;;;1.40;;
14686;SDS011;7431;49.440;11.084;2023-09-19T15:17:53;6.85;;;3.30;;
14686;SDS011;7431;49.440;11.084;2023-09-19T15:20:19;2.63;;;1.40;;
14686;SDS011;7431;49.440;11.084;2023-09-19T15:22:45;2.30;;;1.70;;
14686;SDS011;7431;49.440;11.084;2023-09-19T15:25:13;2.05;;;1.67;;
14686;SDS011;7431;49.440;11.084;2023-09-19T15:27:39;1.50;;;1.40;;